Archival Weather

General Ignacio P Garcia Intl

General Ignacio P Garcia Intl, Mexico (MMHO)

Report from: Wednesday, December 6, 2023 11:40 PM CST
Current time: Tuesday, May 21, 2024 10:41 AM CST

Current weather – Weather history – Daily summaries
Weather forecast

Temperature16.0°C (60.8°F)
Dew point4.0°C (39.2°F)
Winds 4 kts (2.1 m/s, 4.6 mph) South-Southeast (160°)
Visibility10 mi. (16.1 km)
Clouds Sky clear
Altimeter30.02 in.Hg (1017 mB)
Relative humidity45 %
Density altitude119 ft. (36 m)
Sea-level pressure101.7 kPa (1017 mB, 30.03 in.Hg)
Remarks Pressure rising
Flight conditions Visual Meteorological Conditions
Raw dataMMHO 070540Z 16004KT 10SM SKC 16/04 A3002 RMK SLP168 52003 970 HZY
An error has occurred. This application may no longer respond until reloaded. Reload 🗙